sensor_id;sensor_type;location;lat;lon;timestamp;pressure;altitude;pressure_sealevel;temperature;humidity
79123;BME280;68526;44.600;26.032;2023-03-21T00:00:01;100473.06;;;8.41;70.12
79123;BME280;68526;44.600;26.032;2023-03-21T00:00:19;100474.81;;;8.41;69.31
79123;BME280;68526;44.600;26.032;2023-03-21T00:00:35;100471.31;;;8.40;69.77
79123;BME280;68526;44.600;26.032;2023-03-21T00:00:53;100473.91;;;8.40;70.10
79123;BME280;68526;44.600;26.032;2023-03-21T00:01:11;100471.31;;;8.40;69.67
79123;BME280;68526;44.600;26.032;2023-03-21T00:01:27;100475.69;;;8.41;69.86
79123;BME280;68526;44.600;26.032;2023-03-21T00:01:44;100470.41;;;8.40;69.48
79123;BME280;68526;44.600;26.032;2023-03-21T00:02:02;100471.28;;;8.39;69.45
79123;BME280;68526;44.600;26.032;2023-03-21T00:02:18;100468.69;;;8.39;70.07
79123;BME280;68526;44.600;26.032;2023-03-21T00:02:33;100471.28;;;8.39;69.43
79123;BME280;68526;44.600;26.032;2023-03-21T00:02:49;100479.13;;;8.39;70.13
79123;BME280;68526;44.600;26.032;2023-03-21T00:03:05;100469.50;;;8.38;70.06
79123;BME280;68526;44.600;26.032;2023-03-21T00:03:23;100473.00;;;8.38;70.04
79123;BME280;68526;44.600;26.032;2023-03-21T00:03:40;100479.13;;;8.40;69.83
79123;BME280;68526;44.600;26.032;2023-03-21T00:03:57;100477.41;;;8.39;70.14
79123;BME280;68526;44.600;26.032;2023-03-21T00:04:13;100478.25;;;8.40;69.70
79123;BME280;68526;44.600;26.032;2023-03-21T00:04:29;100476.53;;;8.40;69.48
79123;BME280;68526;44.600;26.032;2023-03-21T00:04:46;100477.41;;;8.41;69.67
79123;BME280;68526;44.600;26.032;2023-03-21T00:05:02;100470.41;;;8.40;70.27
79123;BME280;68526;44.600;26.032;2023-03-21T00:05:18;100482.63;;;8.41;69.58
79123;BME280;68526;44.600;26.032;2023-03-21T00:05:38;100477.41;;;8.41;69.97
79123;BME280;68526;44.600;26.032;2023-03-21T00:05:55;100476.53;;;8.40;70.10
79123;BME280;68526;44.600;26.032;2023-03-21T00:06:12;100476.53;;;8.40;70.17
79123;BME280;68526;44.600;26.032;2023-03-21T00:06:28;100475.63;;;8.40;70.18
79123;BME280;68526;44.600;26.032;2023-03-21T00:06:45;100478.25;;;8.40;69.65
79123;BME280;68526;44.600;26.032;2023-03-21T00:07:01;100479.13;;;8.40;69.69
79123;BME280;68526;44.600;26.032;2023-03-21T00:07:17;100476.53;;;8.40;69.99
79123;BME280;68526;44.600;26.032;2023-03-21T00:07:33;100479.13;;;8.40;69.96
79123;BME280;68526;44.600;26.032;2023-03-21T00:07:49;100475.63;;;8.40;70.26
79123;BME280;68526;44.600;26.032;2023-03-21T00:08:05;100478.25;;;8.40;70.22
79123;BME280;68526;44.600;26.032;2023-03-21T00:08:22;100473.03;;;8.40;70.07
79123;BME280;68526;44.600;26.032;2023-03-21T00:08:39;100479.13;;;8.40;70.35
79123;BME280;68526;44.600;26.032;2023-03-21T00:08:54;100479.13;;;8.40;70.15
79123;BME280;68526;44.600;26.032;2023-03-21T00:09:11;100472.19;;;8.39;70.00
79123;BME280;68526;44.600;26.032;2023-03-21T00:09:27;100482.63;;;8.39;70.11
79123;BME280;68526;44.600;26.032;2023-03-21T00:09:43;100476.50;;;8.39;70.33
79123;BME280;68526;44.600;26.032;2023-03-21T00:09:59;100476.50;;;8.39;69.75
79123;BME280;68526;44.600;26.032;2023-03-21T00:10:15;100473.91;;;8.40;70.43
79123;BME280;68526;44.600;26.032;2023-03-21T00:10:31;100479.13;;;8.39;69.68
79123;BME280;68526;44.600;26.032;2023-03-21T00:10:47;100476.50;;;8.39;69.96
79123;BME280;68526;44.600;26.032;2023-03-21T00:11:06;100477.41;;;8.39;69.69
79123;BME280;68526;44.600;26.032;2023-03-21T00:11:22;100474.72;;;8.38;70.26
79123;BME280;68526;44.600;26.032;2023-03-21T00:11:38;100473.00;;;8.38;70.45
79123;BME280;68526;44.600;26.032;2023-03-21T00:11:55;100471.22;;;8.37;70.30
79123;BME280;68526;44.600;26.032;2023-03-21T00:12:11;100469.50;;;8.38;70.27
79123;BME280;68526;44.600;26.032;2023-03-21T00:12:27;100472.13;;;8.38;69.72
79123;BME280;68526;44.600;26.032;2023-03-21T00:12:47;100469.50;;;8.36;69.74
79123;BME280;68526;44.600;26.032;2023-03-21T00:13:04;100464.28;;;8.36;69.83
79123;BME280;68526;44.600;26.032;2023-03-21T00:13:20;100460.78;;;8.37;70.30
79123;BME280;68526;44.600;26.032;2023-03-21T00:13:36;100472.13;;;8.38;69.67
79123;BME280;68526;44.600;26.032;2023-03-21T00:13:52;100471.22;;;8.37;70.07
79123;BME280;68526;44.600;26.032;2023-03-21T00:14:12;100466.06;;;8.39;70.07
79123;BME280;68526;44.600;26.032;2023-03-21T00:14:34;100470.41;;;8.38;70.38
79123;BME280;68526;44.600;26.032;2023-03-21T00:14:52;100471.22;;;8.37;70.26
79123;BME280;68526;44.600;26.032;2023-03-21T00:15:10;100471.22;;;8.37;70.49
79123;BME280;68526;44.600;26.032;2023-03-21T00:15:27;100473.81;;;8.36;70.18
79123;BME280;68526;44.600;26.032;2023-03-21T00:15:44;100467.78;;;8.37;70.39
79123;BME280;68526;44.600;26.032;2023-03-21T00:16:08;100473.81;;;8.36;70.37
79123;BME280;68526;44.600;26.032;2023-03-21T00:16:25;100475.56;;;8.35;69.82
79123;BME280;68526;44.600;26.032;2023-03-21T00:16:40;100469.50;;;8.36;70.35
79123;BME280;68526;44.600;26.032;2023-03-21T00:16:59;100473.00;;;8.37;70.51
79123;BME280;68526;44.600;26.032;2023-03-21T00:17:17;100473.81;;;8.36;70.48
79123;BME280;68526;44.600;26.032;2023-03-21T00:17:33;100472.09;;;8.36;70.55
79123;BME280;68526;44.600;26.032;2023-03-21T00:17:50;100468.59;;;8.36;70.02
79123;BME280;68526;44.600;26.032;2023-03-21T00:18:06;100476.47;;;8.37;70.20
79123;BME280;68526;44.600;26.032;2023-03-21T00:18:26;100473.84;;;8.37;70.61
79123;BME280;68526;44.600;26.032;2023-03-21T00:18:42;100480.84;;;8.38;70.18
79123;BME280;68526;44.600;26.032;2023-03-21T00:19:01;100475.59;;;8.37;70.73
79123;BME280;68526;44.600;26.032;2023-03-21T00:19:20;100471.22;;;8.37;70.34
79123;BME280;68526;44.600;26.032;2023-03-21T00:19:36;100472.13;;;8.38;70.73
79123;BME280;68526;44.600;26.032;2023-03-21T00:19:52;100472.06;;;8.35;70.73
79123;BME280;68526;44.600;26.032;2023-03-21T00:20:10;100476.38;;;8.34;70.55
79123;BME280;68526;44.600;26.032;2023-03-21T00:20:30;100473.81;;;8.36;70.81
79123;BME280;68526;44.600;26.032;2023-03-21T00:20:55;100470.34;;;8.35;70.52
79123;BME280;68526;44.600;26.032;2023-03-21T00:21:14;100466.84;;;8.35;70.25
79123;BME280;68526;44.600;26.032;2023-03-21T00:21:30;100472.94;;;8.35;70.13
79123;BME280;68526;44.600;26.032;2023-03-21T00:21:47;100478.16;;;8.35;70.27
79123;BME280;68526;44.600;26.032;2023-03-21T00:22:06;100469.50;;;8.36;70.06
79123;BME280;68526;44.600;26.032;2023-03-21T00:22:22;100475.59;;;8.37;70.54
79123;BME280;68526;44.600;26.032;2023-03-21T00:22:38;100476.44;;;8.36;70.45
79123;BME280;68526;44.600;26.032;2023-03-21T00:22:54;100467.78;;;8.37;70.33
79123;BME280;68526;44.600;26.032;2023-03-21T00:23:10;100473.81;;;8.36;70.54
79123;BME280;68526;44.600;26.032;2023-03-21T00:23:27;100463.34;;;8.34;70.36
79123;BME280;68526;44.600;26.032;2023-03-21T00:23:44;100469.44;;;8.35;70.07
79123;BME280;68526;44.600;26.032;2023-03-21T00:24:00;100476.47;;;8.37;70.04
79123;BME280;68526;44.600;26.032;2023-03-21T00:24:16;100475.59;;;8.37;70.48
79123;BME280;68526;44.600;26.032;2023-03-21T00:24:32;100466.00;;;8.37;70.03
79123;BME280;68526;44.600;26.032;2023-03-21T00:24:48;100471.22;;;8.37;69.97
79123;BME280;68526;44.600;26.032;2023-03-21T00:25:07;100472.13;;;8.38;69.91
79123;BME280;68526;44.600;26.032;2023-03-21T00:25:25;100475.59;;;8.37;70.34
79123;BME280;68526;44.600;26.032;2023-03-21T00:25:40;100473.00;;;8.37;70.43
79123;BME280;68526;44.600;26.032;2023-03-21T00:25:57;100476.47;;;8.37;70.34
79123;BME280;68526;44.600;26.032;2023-03-21T00:26:13;100473.84;;;8.37;70.48
79123;BME280;68526;44.600;26.032;2023-03-21T00:26:29;100479.94;;;8.36;70.47
79123;BME280;68526;44.600;26.032;2023-03-21T00:26:46;100483.44;;;8.37;69.89
79123;BME280;68526;44.600;26.032;2023-03-21T00:27:02;100474.72;;;8.36;70.45
79123;BME280;68526;44.600;26.032;2023-03-21T00:27:19;100479.06;;;8.36;70.14
79123;BME280;68526;44.600;26.032;2023-03-21T00:27:35;100475.56;;;8.35;70.70
79123;BME280;68526;44.600;26.032;2023-03-21T00:27:51;100477.31;;;8.36;70.72
79123;BME280;68526;44.600;26.032;2023-03-21T00:28:07;100477.31;;;8.36;69.80
79123;BME280;68526;44.600;26.032;2023-03-21T00:28:23;100473.00;;;8.37;69.78
79123;BME280;68526;44.600;26.032;2023-03-21T00:28:40;100482.56;;;8.36;70.57
79123;BME280;68526;44.600;26.032;2023-03-21T00:28:57;100481.69;;;8.37;70.42
79123;BME280;68526;44.600;26.032;2023-03-21T00:29:13;100482.56;;;8.38;69.69
79123;BME280;68526;44.600;26.032;2023-03-21T00:29:29;100477.31;;;8.36;70.33
79123;BME280;68526;44.600;26.032;2023-03-21T00:29:45;100479.94;;;8.36;70.71
79123;BME280;68526;44.600;26.032;2023-03-21T00:30:01;100485.16;;;8.36;69.89
79123;BME280;68526;44.600;26.032;2023-03-21T00:30:18;100480.78;;;8.35;69.95
79123;BME280;68526;44.600;26.032;2023-03-21T00:30:34;100476.44;;;8.36;69.84
79123;BME280;68526;44.600;26.032;2023-03-21T00:30:50;100480.81;;;8.37;69.79
79123;BME280;68526;44.600;26.032;2023-03-21T00:31:07;100482.56;;;8.36;69.92
79123;BME280;68526;44.600;26.032;2023-03-21T00:31:23;100478.16;;;8.34;69.74
79123;BME280;68526;44.600;26.032;2023-03-21T00:31:40;100477.28;;;8.35;70.18
79123;BME280;68526;44.600;26.032;2023-03-21T00:31:56;100478.16;;;8.35;70.35
79123;BME280;68526;44.600;26.032;2023-03-21T00:32:11;100470.34;;;8.35;70.20
79123;BME280;68526;44.600;26.032;2023-03-21T00:32:29;100474.66;;;8.35;69.90
79123;BME280;68526;44.600;26.032;2023-03-21T00:32:46;100477.25;;;8.33;69.46
79123;BME280;68526;44.600;26.032;2023-03-21T00:33:02;100479.00;;;8.34;69.93
79123;BME280;68526;44.600;26.032;2023-03-21T00:33:17;100477.28;;;8.35;70.26
79123;BME280;68526;44.600;26.032;2023-03-21T00:33:36;100476.38;;;8.34;70.23
79123;BME280;68526;44.600;26.032;2023-03-21T00:33:53;100473.75;;;8.33;69.88
79123;BME280;68526;44.600;26.032;2023-03-21T00:34:09;100474.66;;;8.33;69.79
79123;BME280;68526;44.600;26.032;2023-03-21T00:34:27;100478.09;;;8.32;70.07
79123;BME280;68526;44.600;26.032;2023-03-21T00:34:43;100476.34;;;8.31;69.94
79123;BME280;68526;44.600;26.032;2023-03-21T00:34:59;100477.19;;;8.30;69.86
79123;BME280;68526;44.600;26.032;2023-03-21T00:35:15;100475.47;;;8.31;70.01
79123;BME280;68526;44.600;26.032;2023-03-21T00:35:30;100477.22;;;8.32;69.92
79123;BME280;68526;44.600;26.032;2023-03-21T00:35:49;100474.59;;;8.30;69.90
79123;BME280;68526;44.600;26.032;2023-03-21T00:36:09;100471.13;;;8.31;70.15
79123;BME280;68526;44.600;26.032;2023-03-21T00:36:25;100467.59;;;8.29;70.25
79123;BME280;68526;44.600;26.032;2023-03-21T00:36:41;100474.53;;;8.28;69.75
79123;BME280;68526;44.600;26.032;2023-03-21T00:36:57;100477.13;;;8.28;70.03
79123;BME280;68526;44.600;26.032;2023-03-21T00:37:16;100478.91;;;8.28;70.63
79123;BME280;68526;44.600;26.032;2023-03-21T00:37:33;100470.19;;;8.29;70.04
79123;BME280;68526;44.600;26.032;2023-03-21T00:37:49;100470.19;;;8.27;70.63
79123;BME280;68526;44.600;26.032;2023-03-21T00:38:04;100478.00;;;8.27;70.47
79123;BME280;68526;44.600;26.032;2023-03-21T00:38:22;100475.41;;;8.27;70.37
79123;BME280;68526;44.600;26.032;2023-03-21T00:38:38;100472.78;;;8.27;70.61
79123;BME280;68526;44.600;26.032;2023-03-21T00:38:55;100474.53;;;8.28;70.17
79123;BME280;68526;44.600;26.032;2023-03-21T00:39:11;100477.13;;;8.28;70.02
79123;BME280;68526;44.600;26.032;2023-03-21T00:39:28;100472.81;;;8.29;69.87
79123;BME280;68526;44.600;26.032;2023-03-21T00:39:46;100477.13;;;8.28;69.98
79123;BME280;68526;44.600;26.032;2023-03-21T00:40:04;100472.81;;;8.29;70.38
79123;BME280;68526;44.600;26.032;2023-03-21T00:40:23;100478.91;;;8.30;69.83
79123;BME280;68526;44.600;26.032;2023-03-21T00:40:40;100471.91;;;8.28;70.25
79123;BME280;68526;44.600;26.032;2023-03-21T00:40:56;100469.28;;;8.27;70.56
79123;BME280;68526;44.600;26.032;2023-03-21T00:41:12;100471.06;;;8.28;70.35
79123;BME280;68526;44.600;26.032;2023-03-21T00:41:29;100471.06;;;8.28;70.16
79123;BME280;68526;44.600;26.032;2023-03-21T00:41:44;100469.28;;;8.27;69.77
79123;BME280;68526;44.600;26.032;2023-03-21T00:42:02;100469.28;;;8.27;69.87
79123;BME280;68526;44.600;26.032;2023-03-21T00:42:18;100472.78;;;8.27;69.92
79123;BME280;68526;44.600;26.032;2023-03-21T00:42:34;100475.31;;;8.26;70.66
79123;BME280;68526;44.600;26.032;2023-03-21T00:42:50;100471.91;;;8.27;70.29
79123;BME280;68526;44.600;26.032;2023-03-21T00:43:06;100469.28;;;8.27;70.12
79123;BME280;68526;44.600;26.032;2023-03-21T00:43:22;100470.19;;;8.27;69.82
79123;BME280;68526;44.600;26.032;2023-03-21T00:43:44;100472.78;;;8.27;70.24
79123;BME280;68526;44.600;26.032;2023-03-21T00:44:00;100467.47;;;8.26;70.04
79123;BME280;68526;44.600;26.032;2023-03-21T00:44:16;100471.84;;;8.25;70.67
79123;BME280;68526;44.600;26.032;2023-03-21T00:44:32;100466.63;;;8.25;70.42
79123;BME280;68526;44.600;26.032;2023-03-21T00:44:51;100475.31;;;8.26;70.39
79123;BME280;68526;44.600;26.032;2023-03-21T00:45:08;100467.47;;;8.26;69.92
79123;BME280;68526;44.600;26.032;2023-03-21T00:45:24;100464.84;;;8.24;70.03
79123;BME280;68526;44.600;26.032;2023-03-21T00:45:40;100471.84;;;8.25;70.07
79123;BME280;68526;44.600;26.032;2023-03-21T00:45:57;100470.06;;;8.24;70.43
79123;BME280;68526;44.600;26.032;2023-03-21T00:46:13;100468.34;;;8.25;70.65
79123;BME280;68526;44.600;26.032;2023-03-21T00:46:29;100472.69;;;8.26;70.37
79123;BME280;68526;44.600;26.032;2023-03-21T00:46:46;100472.69;;;8.26;69.77
79123;BME280;68526;44.600;26.032;2023-03-21T00:47:02;100469.22;;;8.25;70.39
79123;BME280;68526;44.600;26.032;2023-03-21T00:47:18;100464.84;;;8.24;70.51
79123;BME280;68526;44.600;26.032;2023-03-21T00:47:35;100469.19;;;8.24;70.17
79123;BME280;68526;44.600;26.032;2023-03-21T00:47:52;100465.75;;;8.25;70.44
79123;BME280;68526;44.600;26.032;2023-03-21T00:48:09;100465.75;;;8.25;70.08
79123;BME280;68526;44.600;26.032;2023-03-21T00:48:25;100469.22;;;8.25;70.63
79123;BME280;68526;44.600;26.032;2023-03-21T00:48:41;100470.97;;;8.25;70.60
79123;BME280;68526;44.600;26.032;2023-03-21T00:48:57;100470.97;;;8.25;70.05
79123;BME280;68526;44.600;26.032;2023-03-21T00:49:13;100463.97;;;8.24;70.74
79123;BME280;68526;44.600;26.032;2023-03-21T00:49:29;100472.69;;;8.24;70.32
79123;BME280;68526;44.600;26.032;2023-03-21T00:49:48;100465.66;;;8.22;70.22
79123;BME280;68526;44.600;26.032;2023-03-21T00:50:04;100460.41;;;8.20;70.81
79123;BME280;68526;44.600;26.032;2023-03-21T00:50:22;100469.13;;;8.21;71.04
79123;BME280;68526;44.600;26.032;2023-03-21T00:50:38;100464.78;;;8.21;70.42
79123;BME280;68526;44.600;26.032;2023-03-21T00:50:56;100469.16;;;8.22;70.44
79123;BME280;68526;44.600;26.032;2023-03-21T00:51:17;100462.19;;;8.23;70.38
79123;BME280;68526;44.600;26.032;2023-03-21T00:51:35;100464.81;;;8.23;70.67
79123;BME280;68526;44.600;26.032;2023-03-21T00:51:51;100462.19;;;8.23;71.02
79123;BME280;68526;44.600;26.032;2023-03-21T00:52:08;100463.06;;;8.23;71.23
79123;BME280;68526;44.600;26.032;2023-03-21T00:52:25;100461.34;;;8.22;71.10
79123;BME280;68526;44.600;26.032;2023-03-21T00:52:41;100459.56;;;8.21;71.13
79123;BME280;68526;44.600;26.032;2023-03-21T00:52:57;100464.75;;;8.20;70.47
79123;BME280;68526;44.600;26.032;2023-03-21T00:53:14;100457.75;;;8.19;71.24
79123;BME280;68526;44.600;26.032;2023-03-21T00:53:30;100461.22;;;8.18;70.95
79123;BME280;68526;44.600;26.032;2023-03-21T00:53:46;100455.09;;;8.17;71.31
79123;BME280;68526;44.600;26.032;2023-03-21T00:54:03;100456.88;;;8.17;70.73
79123;BME280;68526;44.600;26.032;2023-03-21T00:54:20;100455.97;;;8.16;71.04
79123;BME280;68526;44.600;26.032;2023-03-21T00:54:36;100454.13;;;8.12;71.33
79123;BME280;68526;44.600;26.032;2023-03-21T00:54:52;100455.00;;;8.11;71.60
79123;BME280;68526;44.600;26.032;2023-03-21T00:55:10;100453.25;;;8.12;70.96
79123;BME280;68526;44.600;26.032;2023-03-21T00:55:29;100452.19;;;8.02;71.87
79123;BME280;68526;44.600;26.032;2023-03-21T00:55:45;100459.19;;;8.05;71.52
79123;BME280;68526;44.600;26.032;2023-03-21T00:56:01;100452.19;;;8.02;71.07
79123;BME280;68526;44.600;26.032;2023-03-21T00:56:17;100453.09;;;8.04;71.22
79123;BME280;68526;44.600;26.032;2023-03-21T00:56:32;100447.78;;;8.00;71.36
79123;BME280;68526;44.600;26.032;2023-03-21T00:56:48;100455.63;;;8.01;71.31
79123;BME280;68526;44.600;26.032;2023-03-21T00:57:05;100453.06;;;8.03;71.24
79123;BME280;68526;44.600;26.032;2023-03-21T00:57:21;100456.50;;;8.02;71.56
79123;BME280;68526;44.600;26.032;2023-03-21T00:57:37;100451.28;;;8.02;71.43
79123;BME280;68526;44.600;26.032;2023-03-21T00:57:53;100453.94;;;8.03;71.15
79123;BME280;68526;44.600;26.032;2023-03-21T00:58:09;100447.84;;;8.03;71.60
79123;BME280;68526;44.600;26.032;2023-03-21T00:58:25;100444.38;;;8.04;71.58
79123;BME280;68526;44.600;26.032;2023-03-21T00:58:41;100451.34;;;8.05;70.87
79123;BME280;68526;44.600;26.032;2023-03-21T00:58:58;100457.47;;;8.05;71.46
79123;BME280;68526;44.600;26.032;2023-03-21T00:59:14;100446.13;;;8.05;71.18
79123;BME280;68526;44.600;26.032;2023-03-21T00:59:29;100447.03;;;8.05;71.64
79123;BME280;68526;44.600;26.032;2023-03-21T00:59:45;100454.88;;;8.07;70.76
79123;BME280;68526;44.600;26.032;2023-03-21T01:00:02;100448.75;;;8.06;71.23
79123;BME280;68526;44.600;26.032;2023-03-21T01:00:22;100447.91;;;8.06;71.48
79123;BME280;68526;44.600;26.032;2023-03-21T01:00:38;100446.97;;;8.04;71.12
79123;BME280;68526;44.600;26.032;2023-03-21T01:00:54;100452.25;;;8.05;71.45
79123;BME280;68526;44.600;26.032;2023-03-21T01:01:10;100446.13;;;8.05;71.21
79123;BME280;68526;44.600;26.032;2023-03-21T01:01:26;100450.44;;;8.03;71.38
79123;BME280;68526;44.600;26.032;2023-03-21T01:01:48;100453.09;;;8.04;71.85
79123;BME280;68526;44.600;26.032;2023-03-21T01:02:04;100445.25;;;8.04;71.20
79123;BME280;68526;44.600;26.032;2023-03-21T01:02:21;100455.75;;;8.06;70.99
79123;BME280;68526;44.600;26.032;2023-03-21T01:02:43;100452.19;;;8.04;70.86
79123;BME280;68526;44.600;26.032;2023-03-21T01:03:12;100452.19;;;8.04;71.56
79123;BME280;68526;44.600;26.032;2023-03-21T01:03:29;100447.84;;;8.03;71.50
79123;BME280;68526;44.600;26.032;2023-03-21T01:03:45;100451.34;;;8.03;71.31
79123;BME280;68526;44.600;26.032;2023-03-21T01:04:05;100453.13;;;8.06;71.44
79123;BME280;68526;44.600;26.032;2023-03-21T01:04:26;100451.34;;;8.03;71.03
79123;BME280;68526;44.600;26.032;2023-03-21T01:04:42;100455.75;;;8.06;71.09
79123;BME280;68526;44.600;26.032;2023-03-21T01:04:58;100447.84;;;8.03;71.38
79123;BME280;68526;44.600;26.032;2023-03-21T01:05:15;100452.16;;;8.01;71.66
79123;BME280;68526;44.600;26.032;2023-03-21T01:05:51;100448.59;;;7.99;71.93
79123;BME280;68526;44.600;26.032;2023-03-21T01:06:20;100449.50;;;7.99;71.48
79123;BME280;68526;44.600;26.032;2023-03-21T01:06:37;100453.88;;;8.00;71.09
79123;BME280;68526;44.600;26.032;2023-03-21T01:06:54;100450.38;;;8.00;71.81
79123;BME280;68526;44.600;26.032;2023-03-21T01:07:18;100448.59;;;7.99;71.81
79123;BME280;68526;44.600;26.032;2023-03-21T01:07:33;100451.22;;;7.99;72.15
79123;BME280;68526;44.600;26.032;2023-03-21T01:07:49;100456.41;;;7.97;71.96
79123;BME280;68526;44.600;26.032;2023-03-21T01:08:07;100455.53;;;7.98;71.78
79123;BME280;68526;44.600;26.032;2023-03-21T01:08:24;100454.69;;;7.98;72.16
79123;BME280;68526;44.600;26.032;2023-03-21T01:08:42;100450.34;;;7.98;71.84
79123;BME280;68526;44.600;26.032;2023-03-21T01:08:59;100452.94;;;7.98;71.06
79123;BME280;68526;44.600;26.032;2023-03-21T01:09:18;100458.22;;;8.00;71.13
79123;BME280;68526;44.600;26.032;2023-03-21T01:09:35;100460.78;;;7.98;71.72
79123;BME280;68526;44.600;26.032;2023-03-21T01:09:50;100452.94;;;7.98;71.94
79123;BME280;68526;44.600;26.032;2023-03-21T01:10:07;100457.31;;;7.98;71.31
79123;BME280;68526;44.600;26.032;2023-03-21T01:10:23;100452.09;;;7.98;71.57
79123;BME280;68526;44.600;26.032;2023-03-21T01:10:39;100450.34;;;7.98;71.69
79123;BME280;68526;44.600;26.032;2023-03-21T01:11:00;100454.72;;;7.99;71.04
79123;BME280;68526;44.600;26.032;2023-03-21T01:11:18;100455.59;;;8.00;71.69
79123;BME280;68526;44.600;26.032;2023-03-21T01:11:35;100453.00;;;8.00;71.61
79123;BME280;68526;44.600;26.032;2023-03-21T01:11:51;100445.16;;;8.00;71.26
79123;BME280;68526;44.600;26.032;2023-03-21T01:12:08;100452.09;;;7.99;71.58
79123;BME280;68526;44.600;26.032;2023-03-21T01:12:25;100445.94;;;7.96;71.69
79123;BME280;68526;44.600;26.032;2023-03-21T01:12:41;100452.09;;;7.98;71.52
79123;BME280;68526;44.600;26.032;2023-03-21T01:12:57;100452.91;;;7.97;71.83
79123;BME280;68526;44.600;26.032;2023-03-21T01:13:14;100448.59;;;7.97;71.65
79123;BME280;68526;44.600;26.032;2023-03-21T01:13:31;100453.81;;;7.97;71.32
79123;BME280;68526;44.600;26.032;2023-03-21T01:13:48;100451.22;;;7.99;71.16
79123;BME280;68526;44.600;26.032;2023-03-21T01:14:04;100448.59;;;7.99;71.45
79123;BME280;68526;44.600;26.032;2023-03-21T01:14:21;100447.72;;;7.98;71.42
79123;BME280;68526;44.600;26.032;2023-03-21T01:14:37;100447.72;;;7.98;71.12
79123;BME280;68526;44.600;26.032;2023-03-21T01:14:53;100446.88;;;7.98;71.13
79123;BME280;68526;44.600;26.032;2023-03-21T01:15:10;100447.72;;;7.98;71.58
79123;BME280;68526;44.600;26.032;2023-03-21T01:15:26;100447.72;;;7.98;71.29
79123;BME280;68526;44.600;26.032;2023-03-21T01:15:44;100445.09;;;7.98;71.40
79123;BME280;68526;44.600;26.032;2023-03-21T01:16:00;100443.38;;;7.97;71.04
79123;BME280;68526;44.600;26.032;2023-03-21T01:16:17;100443.38;;;7.99;71.16
79123;BME280;68526;44.600;26.032;2023-03-21T01:16:34;100448.59;;;7.97;70.89
79123;BME280;68526;44.600;26.032;2023-03-21T01:16:51;100443.28;;;7.94;71.12
79123;BME280;68526;44.600;26.032;2023-03-21T01:17:07;100443.28;;;7.94;71.01
79123;BME280;68526;44.600;26.032;2023-03-21T01:17:23;100441.56;;;7.95;71.52
79123;BME280;68526;44.600;26.032;2023-03-21T01:17:39;100446.78;;;7.95;71.67
79123;BME280;68526;44.600;26.032;2023-03-21T01:17:56;100445.94;;;7.96;71.22
79123;BME280;68526;44.600;26.032;2023-03-21T01:18:15;100441.56;;;7.95;71.47
79123;BME280;68526;44.600;26.032;2023-03-21T01:18:33;100442.47;;;7.95;71.42
79123;BME280;68526;44.600;26.032;2023-03-21T01:18:50;100438.09;;;7.96;71.38
79123;BME280;68526;44.600;26.032;2023-03-21T01:19:07;100444.19;;;7.95;71.07
79123;BME280;68526;44.600;26.032;2023-03-21T01:19:27;100445.03;;;7.94;71.79
79123;BME280;68526;44.600;26.032;2023-03-21T01:19:43;100441.53;;;7.93;71.94
79123;BME280;68526;44.600;26.032;2023-03-21T01:20:00;100440.63;;;7.93;71.61
79123;BME280;68526;44.600;26.032;2023-03-21T01:20:16;100445.84;;;7.93;71.89
79123;BME280;68526;44.600;26.032;2023-03-21T01:20:31;100440.63;;;7.91;71.92
79123;BME280;68526;44.600;26.032;2023-03-21T01:20:47;100444.13;;;7.92;71.39
79123;BME280;68526;44.600;26.032;2023-03-21T01:21:08;100434.56;;;7.92;72.02
79123;BME280;68526;44.600;26.032;2023-03-21T01:21:24;100441.50;;;7.92;71.58
79123;BME280;68526;44.600;26.032;2023-03-21T01:21:40;100440.59;;;7.90;71.71
79123;BME280;68526;44.600;26.032;2023-03-21T01:21:57;100436.22;;;7.89;71.67
79123;BME280;68526;44.600;26.032;2023-03-21T01:22:13;100439.56;;;7.83;72.28
79123;BME280;68526;44.600;26.032;2023-03-21T01:22:29;100428.22;;;7.81;72.74
79123;BME280;68526;44.600;26.032;2023-03-21T01:22:45;100435.81;;;7.72;72.75
79123;BME280;68526;44.600;26.032;2023-03-21T01:23:01;100431.50;;;7.74;72.66
79123;BME280;68526;44.600;26.032;2023-03-21T01:23:17;100439.41;;;7.77;72.24
79123;BME280;68526;44.600;26.032;2023-03-21T01:23:34;100430.69;;;7.77;72.35
79123;BME280;68526;44.600;26.032;2023-03-21T01:23:50;100435.00;;;7.75;72.87
79123;BME280;68526;44.600;26.032;2023-03-21T01:24:07;100427.22;;;7.76;72.73
79123;BME280;68526;44.600;26.032;2023-03-21T01:24:23;100432.41;;;7.76;72.62
79123;BME280;68526;44.600;26.032;2023-03-21T01:24:38;100426.28;;;7.73;72.53
79123;BME280;68526;44.600;26.032;2023-03-21T01:24:54;100429.78;;;7.73;72.69
79123;BME280;68526;44.600;26.032;2023-03-21T01:25:11;100434.13;;;7.74;72.11
79123;BME280;68526;44.600;26.032;2023-03-21T01:25:27;100431.50;;;7.73;72.55
79123;BME280;68526;44.600;26.032;2023-03-21T01:25:43;100436.63;;;7.69;72.22
79123;BME280;68526;44.600;26.032;2023-03-21T01:25:59;100432.34;;;7.72;72.81
79123;BME280;68526;44.600;26.032;2023-03-21T01:26:15;100428.81;;;7.69;72.55
79123;BME280;68526;44.600;26.032;2023-03-21T01:26:31;100434.91;;;7.70;72.47
79123;BME280;68526;44.600;26.032;2023-03-21T01:26:48;100430.56;;;7.70;72.71
79123;BME280;68526;44.600;26.032;2023-03-21T01:27:04;100433.16;;;7.70;72.47
79123;BME280;68526;44.600;26.032;2023-03-21T01:27:20;100434.06;;;7.71;72.41
79123;BME280;68526;44.600;26.032;2023-03-21T01:27:36;100431.44;;;7.71;72.49
79123;BME280;68526;44.600;26.032;2023-03-21T01:27:51;100421.94;;;7.73;72.83
79123;BME280;68526;44.600;26.032;2023-03-21T01:28:09;100431.50;;;7.74;72.27
79123;BME280;68526;44.600;26.032;2023-03-21T01:28:26;100426.34;;;7.76;72.30
79123;BME280;68526;44.600;26.032;2023-03-21T01:28:44;100429.78;;;7.75;72.21